Time;durP1;ratioP1;P1;durP2;ratioP2;P2;SDS_P1;SDS_P2;PMS_P1;PMS_P2;Temp;Humidity;BMP_temperature;BMP_pressure;BME280_temperature;BME280_humidity;BME280_pressure;Samples;Min_cycle;Max_cycle;Signal;HPM_P1;HPM_P2
2022/01/21 00:00:30;;;;;;;5.20;2.60;;;19.10;94.30;;;;;;4242026;27;20221;-79
2022/01/21 00:02:32;;;;;;;7.38;2.92;;;19.10;94.30;;;;;;4249688;27;20262;-79
2022/01/21 00:04:35;;;;;;;7.50;2.58;;;19.00;94.30;;;;;;4248779;27;20209;-79
2022/01/21 00:06:39;;;;;;;7.30;2.65;;;19.00;94.30;;;;;;4237564;27;20231;-79
2022/01/21 00:08:44;;;;;;;6.15;2.75;;;19.00;94.60;;;;;;4249240;27;20217;-79
2022/01/21 00:10:46;;;;;;;5.20;2.45;;;19.00;94.30;;;;;;4234770;27;20210;-79
2022/01/21 00:12:52;;;;;;;5.63;2.72;;;19.00;94.30;;;;;;4231933;28;20213;-79
2022/01/21 00:14:56;;;;;;;5.47;2.42;;;19.00;94.30;;;;;;4232434;27;20628;-79
2022/01/21 00:16:58;;;;;;;4.65;2.28;;;19.00;94.20;;;;;;4249126;27;20262;-79
2022/01/21 00:19:07;;;;;;;5.13;3.10;;;19.00;94.20;;;;;;4249409;27;20253;-79
2022/01/21 00:30:30;;;;;;;6.13;2.72;;;19.00;94.20;;;;;;4232554;28;20595;-79
2022/01/21 00:32:32;;;;;;;5.90;2.60;;;18.90;94.10;;;;;;4241237;27;20217;-79
2022/01/21 00:34:35;;;;;;;4.75;2.40;;;18.90;94.10;;;;;;4248998;27;20340;-79
2022/01/21 00:36:37;;;;;;;6.55;2.70;;;18.90;94.20;;;;;;4238429;27;20236;-79
2022/01/21 00:38:41;;;;;;;6.10;2.50;;;18.90;94.20;;;;;;4232017;28;20258;-79
2022/01/21 00:40:44;;;;;;;5.93;2.70;;;18.90;94.20;;;;;;4232190;28;20217;-79
2022/01/21 00:43:05;;;;;;;8.38;2.92;;;18.90;94.20;;;;;;4238001;27;20263;-79
2022/01/21 00:45:12;;;;;;;4.43;2.25;;;18.90;94.20;;;;;;4231760;28;20287;-79
2022/01/21 00:47:16;;;;;;;5.57;2.75;;;18.90;94.20;;;;;;4231284;27;20225;-79
2022/01/21 00:49:19;;;;;;;4.20;2.47;;;18.90;94.20;;;;;;4229424;28;20217;-79
2022/01/21 00:51:21;;;;;;;4.20;2.13;;;18.80;94.20;;;;;;4231221;27;20226;-79
2022/01/21 00:53:23;;;;;;;5.10;2.30;;;18.90;94.20;;;;;;4228153;28;20640;-79
2022/01/21 00:55:26;;;;;;;6.90;2.60;;;18.80;94.20;;;;;;4230014;27;20266;-79
2022/01/21 00:57:28;;;;;;;5.72;2.42;;;18.80;94.20;;;;;;4229842;28;20221;-79
2022/01/21 00:59:31;;;;;;;5.10;2.67;;;18.80;94.20;;;;;;4229878;28;20310;-79
2022/01/21 01:01:33;;;;;;;4.65;2.63;;;18.80;94.20;;;;;;4228693;27;20276;-79
2022/01/21 01:03:37;;;;;;;5.40;3.00;;;18.80;94.10;;;;;;4228903;28;20217;-79
2022/01/21 01:05:39;;;;;;;5.22;2.40;;;18.80;94.10;;;;;;4232655;27;20206;-79
2022/01/21 01:07:42;;;;;;;5.88;2.65;;;18.80;94.10;;;;;;4232640;27;20259;-79
2022/01/21 01:09:44;;;;;;;5.45;2.78;;;18.80;94.10;;;;;;4230593;27;20723;-79
2022/01/21 01:12:05;;;;;;;5.55;2.45;;;18.70;94.10;;;;;;4229750;28;20263;-79
2022/01/21 01:21:08;;;;;;;6.25;2.83;;;18.70;94.00;;;;;;4232053;27;20202;-79
2022/01/21 01:23:23;;;;;;;4.95;2.55;;;18.70;94.00;;;;;;4235087;27;20238;-79
2022/01/21 01:27:44;;;;;;;6.30;2.50;;;18.70;94.10;;;;;;4237697;27;20189;-79
2022/01/21 01:29:47;;;;;;;5.18;2.42;;;18.70;94.00;;;;;;4236878;27;20209;-79
2022/01/21 01:31:49;;;;;;;4.50;2.33;;;18.70;94.10;;;;;;4238044;27;20286;-79
2022/01/21 01:33:58;;;;;;;5.22;2.55;;;18.70;94.10;;;;;;4230266;27;20675;-79
2022/01/21 01:36:00;;;;;;;3.90;2.40;;;18.60;94.00;;;;;;4226979;28;20277;-79
2022/01/21 01:38:30;;;;;;;5.38;2.58;;;18.70;94.10;;;;;;4228759;28;20217;-79
2022/01/21 01:40:38;;;;;;;5.68;2.28;;;18.60;94.00;;;;;;4228713;28;20229;-79
2022/01/21 01:49:40;;;;;;;7.82;2.92;;;18.60;94.00;;;;;;4229621;28;20189;-79
2022/01/21 01:51:42;;;;;;;5.97;2.67;;;18.60;94.00;;;;;;4227846;28;20283;-79
2022/01/21 01:53:48;;;;;;;7.90;3.00;;;18.60;94.10;;;;;;4240213;27;20222;-79
2022/01/21 01:55:51;;;;;;;4.28;2.15;;;18.50;94.00;;;;;;4229298;28;20259;-79
2022/01/21 01:57:54;;;;;;;5.90;2.47;;;18.50;94.00;;;;;;4233186;27;20217;-79
2022/01/21 01:59:56;;;;;;;5.95;2.92;;;18.50;94.00;;;;;;4228775;28;20233;-79
2022/01/21 02:02:01;;;;;;;4.47;2.22;;;18.50;94.00;;;;;;4235600;27;20213;-79
2022/01/21 02:04:04;;;;;;;6.70;2.78;;;18.50;94.00;;;;;;4231121;27;20279;-79
2022/01/21 02:06:08;;;;;;;6.95;2.35;;;18.50;94.00;;;;;;4231093;27;20218;-79
2022/01/21 02:08:11;;;;;;;5.47;2.70;;;18.50;94.00;;;;;;4230827;27;20266;-79
2022/01/21 02:10:14;;;;;;;5.50;2.47;;;18.50;94.00;;;;;;4231123;27;20687;-79
2022/01/21 02:12:16;;;;;;;5.07;2.53;;;18.60;94.00;;;;;;4228991;28;20221;-79
2022/01/21 02:14:23;;;;;;;4.15;2.50;;;18.50;93.90;;;;;;4229813;27;21008;-79
2022/01/21 02:16:42;;;;;;;5.57;2.80;;;18.60;93.90;;;;;;4235125;27;20370;-79
2022/01/21 02:21:31;;;;;;;4.82;2.50;;;18.50;93.80;;;;;;4228591;28;20643;-79
2022/01/21 02:23:33;;;;;;;4.90;2.65;;;18.50;93.80;;;;;;4227727;28;20221;-79
2022/01/21 02:25:36;;;;;;;7.95;2.80;;;18.50;93.80;;;;;;4228012;27;20217;-79
2022/01/21 02:27:38;;;;;;;4.45;2.35;;;18.50;93.80;;;;;;4228351;28;20666;-79
2022/01/21 02:29:46;;;;;;;5.32;2.35;;;18.50;93.80;;;;;;4232013;27;20562;-79
2022/01/21 02:31:48;;;;;;;5.70;2.58;;;18.50;93.80;;;;;;4228120;28;20636;-79
2022/01/21 02:33:51;;;;;;;5.50;2.60;;;18.50;93.90;;;;;;4227927;28;20245;-79
2022/01/21 02:35:53;;;;;;;5.05;2.55;;;18.50;93.80;;;;;;4230444;28;20225;-79
2022/01/21 02:37:58;;;;;;;6.40;2.80;;;18.40;93.80;;;;;;4230357;27;20221;-79
2022/01/21 02:40:00;;;;;;;5.50;2.58;;;18.50;93.80;;;;;;4238838;27;20213;-79
2022/01/21 02:42:03;;;;;;;5.13;2.72;;;18.40;93.80;;;;;;4231123;27;20262;-79
2022/01/21 02:44:07;;;;;;;5.30;2.33;;;18.50;93.80;;;;;;4226141;28;20361;-79
2022/01/21 02:46:10;;;;;;;6.47;2.80;;;18.50;93.80;;;;;;4232097;27;20269;-79
2022/01/21 02:48:13;;;;;;;5.47;2.90;;;18.50;93.80;;;;;;4229965;27;20791;-79
2022/01/21 02:50:16;;;;;;;4.82;2.15;;;18.40;93.80;;;;;;4231277;27;20221;-79
2022/01/21 02:52:22;;;;;;;7.55;2.72;;;18.40;93.80;;;;;;4232754;27;20225;-79
2022/01/21 02:54:25;;;;;;;5.88;2.40;;;18.40;93.80;;;;;;4229205;28;20252;-79
2022/01/21 02:56:28;;;;;;;6.70;2.70;;;18.40;93.80;;;;;;4232445;27;20238;-79
2022/01/21 02:58:31;;;;;;;5.35;2.50;;;18.40;93.80;;;;;;4230224;28;20263;-79
2022/01/21 03:00:34;;;;;;;5.65;2.65;;;18.40;93.80;;;;;;4228682;28;20290;-79
2022/01/21 03:02:36;;;;;;;6.20;2.28;;;18.40;93.80;;;;;;4241253;27;20273;-79
2022/01/21 03:04:47;;;;;;;4.60;2.35;;;18.40;93.80;;;;;;4234288;28;20218;-79
2022/01/21 03:06:50;;;;;;;6.75;2.50;;;18.40;94.20;;;;;;4237191;28;20633;-79
2022/01/21 03:08:54;;;;;;;6.18;2.83;;;18.40;93.80;;;;;;4229426;28;20210;-79
2022/01/21 03:10:58;;;;;;;5.68;2.70;;;18.40;93.80;;;;;;4229754;28;20618;-79
2022/01/21 03:13:00;;;;;;;7.65;3.03;;;18.40;93.70;;;;;;4233143;28;20266;-79
2022/01/21 03:15:03;;;;;;;4.45;2.58;;;18.40;93.80;;;;;;4246173;28;20254;-79
2022/01/21 03:17:05;;;;;;;6.07;2.47;;;18.30;93.70;;;;;;4228233;27;20267;-79
2022/01/21 03:19:08;;;;;;;4.10;2.13;;;18.30;93.70;;;;;;4233444;28;20262;-79
2022/01/21 03:21:15;;;;;;;7.47;2.58;;;18.40;93.60;;;;;;4240011;27;20269;-79
2022/01/21 03:23:20;;;;;;;4.68;2.20;;;18.30;93.60;;;;;;4245646;27;20209;-79
2022/01/21 03:25:22;;;;;;;5.03;2.70;;;18.30;93.60;;;;;;4250276;27;20624;-79
2022/01/21 03:27:26;;;;;;;6.82;2.63;;;18.30;93.60;;;;;;4239470;27;20271;-79
2022/01/21 03:29:28;;;;;;;5.78;2.55;;;18.30;93.60;;;;;;4243309;27;20216;-79
2022/01/21 03:31:33;;;;;;;5.05;2.00;;;18.30;93.70;;;;;;4234783;27;20266;-79
2022/01/21 03:33:35;;;;;;;5.70;2.38;;;18.30;93.70;;;;;;4232401;28;20611;-79
2022/01/21 03:35:38;;;;;;;5.72;2.55;;;18.30;93.70;;;;;;4243852;27;20728;-79
2022/01/21 03:37:40;;;;;;;5.60;2.60;;;18.30;93.70;;;;;;4247650;27;20213;-79
2022/01/21 03:39:42;;;;;;;5.28;2.35;;;18.30;93.70;;;;;;4235066;27;20221;-79
2022/01/21 03:41:44;;;;;;;5.20;2.45;;;18.30;93.70;;;;;;4250086;27;20236;-79
2022/01/21 03:43:49;;;;;;;5.63;2.45;;;18.30;93.70;;;;;;4235863;27;20206;-79
2022/01/21 03:45:52;;;;;;;6.32;2.45;;;18.30;94.10;;;;;;4241199;27;20221;-79
2022/01/21 03:47:55;;;;;;;6.70;2.30;;;18.20;93.70;;;;;;4250192;27;20212;-79
2022/01/21 03:50:18;;;;;;;4.47;2.03;;;18.30;93.80;;;;;;4248668;27;20208;-78
2022/01/21 03:52:20;;;;;;;6.32;2.47;;;18.30;93.70;;;;;;4231950;28;20214;-79
2022/01/21 03:54:23;;;;;;;4.97;2.13;;;18.20;93.70;;;;;;4232548;28;20688;-79
2022/01/21 03:56:25;;;;;;;5.63;2.50;;;18.20;93.80;;;;;;4244938;27;20261;-79
2022/01/21 03:58:27;;;;;;;5.70;2.53;;;18.20;93.80;;;;;;4249955;27;20209;-79
2022/01/21 04:00:33;;;;;;;6.85;2.60;;;18.20;93.80;;;;;;4246567;27;20240;-79
2022/01/21 04:02:35;;;;;;;6.22;2.47;;;18.20;93.80;;;;;;4236265;27;20220;-79
2022/01/21 04:04:38;;;;;;;5.90;2.20;;;18.20;93.80;;;;;;4249514;27;20208;-79
2022/01/21 04:06:40;;;;;;;3.95;2.00;;;18.20;93.80;;;;;;4235668;27;20205;-79
2022/01/21 04:08:42;;;;;;;6.03;2.47;;;18.20;93.80;;;;;;4230521;27;20211;-79
2022/01/21 04:10:48;;;;;;;6.28;2.40;;;18.20;93.90;;;;;;4232632;28;20666;-79
2022/01/21 04:12:50;;;;;;;5.72;2.38;;;18.20;93.90;;;;;;4231908;27;20266;-79
2022/01/21 04:14:53;;;;;;;4.93;2.00;;;18.10;93.80;;;;;;4232806;28;20217;-79
2022/01/21 04:16:56;;;;;;;6.75;2.60;;;18.10;93.80;;;;;;4232885;28;20665;-78
2022/01/21 04:18:59;;;;;;;5.22;2.50;;;18.20;93.90;;;;;;4236253;27;20665;-79
2022/01/21 04:21:01;;;;;;;4.90;2.20;;;18.20;93.90;;;;;;4249373;27;20241;-79
2022/01/21 04:23:04;;;;;;;5.55;2.33;;;18.10;93.90;;;;;;4249622;27;20329;-79
2022/01/21 04:25:07;;;;;;;5.15;2.63;;;18.10;93.90;;;;;;4239421;27;20287;-79
2022/01/21 04:27:10;;;;;;;4.82;2.08;;;18.10;93.90;;;;;;4240231;27;20272;-79
2022/01/21 04:29:12;;;;;;;5.57;2.22;;;18.10;93.90;;;;;;4249233;27;20234;-78
2022/01/21 04:31:14;;;;;;;4.80;2.25;;;18.10;93.90;;;;;;4241559;27;20254;-79
2022/01/21 04:33:18;;;;;;;4.82;2.28;;;18.10;94.00;;;;;;4232349;28;20217;-79
2022/01/21 04:35:21;;;;;;;5.38;2.05;;;18.10;94.30;;;;;;4231898;28;20389;-79
2022/01/21 04:37:24;;;;;;;7.28;2.58;;;18.10;94.00;;;;;;4245714;27;20212;-79
2022/01/21 04:39:31;;;;;;;3.47;1.73;;;18.10;94.00;;;;;;4225066;28;20218;-79
2022/01/21 04:47:12;;;;;;;5.93;2.08;;;18.10;94.00;;;;;;4235057;27;20244;-79
2022/01/21 04:48:42;;;;;;;5.10;2.17;;;18.00;94.00;;;;;;4243802;27;20181;-79
2022/01/21 04:50:54;;;;;;;5.50;1.80;;;18.00;94.00;;;;;;4232043;28;20676;-79
2022/01/21 04:52:57;;;;;;;5.45;2.47;;;18.00;93.90;;;;;;4247396;27;20274;-79
2022/01/21 04:54:59;;;;;;;7.28;2.22;;;18.00;94.30;;;;;;4241355;27;20221;-79
2022/01/21 04:57:04;;;;;;;6.20;2.50;;;18.00;94.00;;;;;;4232183;28;20213;-79
2022/01/21 04:59:06;;;;;;;3.42;1.85;;;18.00;94.00;;;;;;4229541;27;20685;-78
2022/01/21 05:01:09;;;;;;;7.22;2.28;;;18.00;94.00;;;;;;4236216;27;20259;-79
2022/01/21 05:03:11;;;;;;;7.45;2.10;;;18.00;94.00;;;;;;4239522;27;20262;-79
2022/01/21 05:05:15;;;;;;;6.65;2.17;;;18.00;94.00;;;;;;4239254;27;20218;-79
2022/01/21 05:07:22;;;;;;;4.32;2.20;;;18.00;94.00;;;;;;4231217;27;20217;-79
2022/01/21 05:09:30;;;;;;;5.18;2.40;;;18.00;94.00;;;;;;4235409;27;20283;-79
2022/01/21 05:11:35;;;;;;;6.65;2.33;;;18.00;94.10;;;;;;4242446;27;20213;-79
2022/01/21 05:13:41;;;;;;;6.50;2.28;;;17.90;94.10;;;;;;4235966;27;20326;-79
2022/01/21 05:15:59;;;;;;;5.38;2.30;;;17.90;94.00;;;;;;4229548;28;20222;-79
2022/01/21 05:18:01;;;;;;;5.53;2.15;;;17.90;94.00;;;;;;4242655;27;20221;-79
2022/01/21 05:20:05;;;;;;;5.13;2.28;;;18.00;94.10;;;;;;4233168;27;20210;-79
2022/01/21 05:22:09;;;;;;;4.97;2.00;;;17.90;94.10;;;;;;4247272;27;20244;-79
2022/01/21 05:24:11;;;;;;;6.15;2.53;;;17.90;94.10;;;;;;4248340;27;20273;-79
2022/01/21 05:26:14;;;;;;;4.30;1.88;;;17.90;94.10;;;;;;4241164;27;20643;-79
2022/01/21 05:28:16;;;;;;;6.68;2.25;;;17.90;94.10;;;;;;4231373;28;20254;-79
2022/01/21 05:30:19;;;;;;;5.30;2.15;;;17.90;94.20;;;;;;4231605;28;20271;-79
2022/01/21 05:32:22;;;;;;;4.95;2.50;;;17.90;94.10;;;;;;4245663;27;20262;-79
2022/01/21 05:34:24;;;;;;;4.55;2.20;;;17.90;94.10;;;;;;4230938;28;20705;-79
2022/01/21 05:36:27;;;;;;;5.07;2.13;;;17.90;94.10;;;;;;4233703;27;20221;-79
2022/01/21 05:38:30;;;;;;;6.40;2.35;;;17.90;94.50;;;;;;4244877;27;20226;-79
2022/01/21 05:40:33;;;;;;;4.53;1.95;;;17.90;94.10;;;;;;4234153;27;20213;-79
2022/01/21 05:42:36;;;;;;;4.70;2.00;;;17.90;94.20;;;;;;4244297;27;20274;-79
2022/01/21 05:47:00;;;;;;;5.28;2.10;;;17.90;94.20;;;;;;4231581;28;20189;-79
2022/01/21 05:49:02;;;;;;;5.63;2.10;;;17.90;94.20;;;;;;4243050;27;20262;-79
2022/01/21 05:51:04;;;;;;;4.32;2.10;;;17.80;94.10;;;;;;4230992;27;20658;-79
2022/01/21 05:53:10;;;;;;;3.90;2.05;;;17.90;94.20;;;;;;4235044;27;20221;-79
2022/01/21 05:55:14;;;;;;;5.55;2.28;;;17.80;94.30;;;;;;4247882;27;20213;-79
2022/01/21 05:57:18;;;;;;;5.63;2.33;;;17.60;94.50;;;;;;4238008;27;20217;-79
2022/01/21 05:59:22;;;;;;;5.15;2.03;;;17.60;94.60;;;;;;4243947;27;20212;-79
2022/01/21 06:01:25;;;;;;;4.75;2.20;;;17.70;94.40;;;;;;4233047;27;20638;-79
2022/01/21 06:03:27;;;;;;;4.78;2.30;;;17.70;94.40;;;;;;4233524;27;20270;-79
2022/01/21 06:05:33;;;;;;;5.60;2.17;;;17.90;94.30;;;;;;4243821;27;20218;-79
2022/01/21 06:07:36;;;;;;;3.80;2.00;;;17.90;94.30;;;;;;4231142;27;20226;-79
2022/01/21 06:09:38;;;;;;;5.40;2.10;;;18.00;94.40;;;;;;4229123;28;20206;-79
2022/01/21 06:11:42;;;;;;;3.85;2.05;;;18.00;94.30;;;;;;4246372;27;20718;-79
2022/01/21 06:13:45;;;;;;;3.83;2.00;;;18.00;94.40;;;;;;4247824;27;20217;-79
2022/01/21 06:15:48;;;;;;;4.10;1.85;;;18.10;94.50;;;;;;4247305;27;20612;-79
2022/01/21 06:17:50;;;;;;;4.93;1.80;;;18.10;94.80;;;;;;4233377;27;20274;-79
2022/01/21 06:19:52;;;;;;;4.72;2.25;;;18.10;95.00;;;;;;4230617;28;20610;-79
2022/01/21 06:21:55;;;;;;;4.03;2.00;;;18.10;94.80;;;;;;4237279;27;20221;-79
2022/01/21 06:23:57;;;;;;;4.13;2.00;;;18.10;94.80;;;;;;4237943;27;20612;-79
2022/01/21 06:25:59;;;;;;;4.68;1.77;;;18.20;94.90;;;;;;4230412;27;20225;-79
2022/01/21 06:28:03;;;;;;;4.05;1.85;;;18.10;95.00;;;;;;4226350;28;20206;-79
2022/01/21 06:30:08;;;;;;;4.38;2.00;;;18.20;95.00;;;;;;4240285;27;20229;-79
2022/01/21 06:32:10;;;;;;;4.63;1.83;;;18.20;94.90;;;;;;4245720;27;20213;-78
2022/01/21 06:34:12;;;;;;;4.15;1.73;;;18.20;95.40;;;;;;4245721;27;20281;-79
2022/01/21 06:36:15;;;;;;;5.53;2.20;;;18.20;95.20;;;;;;4239786;27;20275;-78
2022/01/21 06:38:17;;;;;;;4.28;2.00;;;18.20;95.00;;;;;;4228780;28;20213;-79
2022/01/21 06:40:20;;;;;;;3.85;1.90;;;18.20;95.00;;;;;;4228733;28;20628;-78
2022/01/21 06:42:25;;;;;;;4.10;2.00;;;18.20;95.10;;;;;;4234406;27;20293;-78
2022/01/21 06:44:28;;;;;;;4.75;1.95;;;18.20;95.10;;;;;;4224727;27;20217;-78
2022/01/21 06:46:31;;;;;;;5.25;1.88;;;18.20;95.10;;;;;;4239013;27;20220;-78
2022/01/21 06:48:33;;;;;;;3.88;1.98;;;18.20;95.20;;;;;;4245564;27;20773;-78
2022/01/21 06:50:38;;;;;;;2.75;1.60;;;18.20;95.10;;;;;;4231485;27;20329;-79
2022/01/21 06:52:40;;;;;;;4.55;1.80;;;18.20;95.20;;;;;;4240179;27;20213;-78
2022/01/21 06:54:43;;;;;;;6.88;2.17;;;18.20;95.20;;;;;;4231609;27;20302;-78
2022/01/21 06:56:45;;;;;;;4.57;2.15;;;18.20;95.30;;;;;;4227904;28;20278;-79
2022/01/21 06:58:48;;;;;;;4.20;2.10;;;18.20;95.40;;;;;;4228210;27;20225;-78
2022/01/21 07:00:51;;;;;;;4.32;1.90;;;18.20;95.30;;;;;;4244428;27;20258;-79
2022/01/21 07:02:55;;;;;;;3.90;1.90;;;18.30;95.50;;;;;;4222876;28;20633;-79
2022/01/21 07:04:57;;;;;;;4.88;2.17;;;18.30;95.40;;;;;;4224190;28;20255;-79
2022/01/21 07:06:59;;;;;;;6.40;1.88;;;18.30;95.50;;;;;;4228150;28;20268;-79
2022/01/21 07:09:02;;;;;;;3.33;1.80;;;18.30;95.50;;;;;;4231356;28;20709;-79
2022/01/21 07:11:04;;;;;;;4.13;1.70;;;18.30;95.50;;;;;;4245295;28;20250;-78
2022/01/21 07:13:06;;;;;;;4.25;2.22;;;18.30;95.50;;;;;;4245434;28;20225;-78
2022/01/21 07:15:10;;;;;;;4.25;2.10;;;18.30;95.60;;;;;;4231598;28;20263;-78
2022/01/21 07:17:14;;;;;;;5.85;2.88;;;18.20;95.60;;;;;;4226772;28;20205;-78
2022/01/21 07:19:17;;;;;;;4.32;2.15;;;18.00;95.20;;;;;;4228276;28;20314;-79
2022/01/21 07:21:22;;;;;;;8.23;2.63;;;18.20;95.90;;;;;;4240942;28;20258;-78
2022/01/21 07:23:25;;;;;;;6.45;2.22;;;18.20;95.70;;;;;;4225788;28;20646;-78
2022/01/21 07:25:27;;;;;;;5.15;2.50;;;18.30;95.70;;;;;;4238724;28;20220;-79
2022/01/21 07:27:30;;;;;;;5.38;2.60;;;18.30;95.70;;;;;;4245438;28;20217;-78
2022/01/21 07:29:32;;;;;;;5.82;2.30;;;18.30;95.50;;;;;;4245306;28;20625;-78
2022/01/21 07:31:34;;;;;;;4.25;2.03;;;18.30;95.60;;;;;;4232137;28;20654;-78
2022/01/21 07:33:38;;;;;;;5.22;2.33;;;18.30;95.60;;;;;;4227389;28;20244;-78
2022/01/21 07:35:41;;;;;;;5.75;2.33;;;18.30;95.70;;;;;;4230271;28;20214;-78
2022/01/21 07:37:43;;;;;;;5.43;2.00;;;18.40;95.70;;;;;;4227477;28;20218;-78
2022/01/21 07:39:45;;;;;;;4.43;2.00;;;18.30;95.70;;;;;;4232728;28;20630;-78
2022/01/21 07:41:48;;;;;;;5.88;2.17;;;18.30;95.70;;;;;;4235740;28;20213;-78
2022/01/21 07:43:52;;;;;;;5.10;2.10;;;18.30;95.80;;;;;;4227305;28;20271;-78
2022/01/21 07:45:54;;;;;;;4.63;2.17;;;18.30;95.80;;;;;;4235806;28;20212;-78
2022/01/21 07:47:57;;;;;;;5.05;2.05;;;18.30;95.90;;;;;;4227031;28;20292;-79
2022/01/21 07:50:01;;;;;;;4.95;2.00;;;18.30;95.90;;;;;;4231006;28;20729;-79
2022/01/21 07:52:04;;;;;;;6.28;2.22;;;18.30;95.90;;;;;;4238994;28;20217;-79
2022/01/21 07:54:07;;;;;;;6.38;2.15;;;18.40;96.00;;;;;;4229489;28;20209;-79
2022/01/21 07:56:10;;;;;;;4.78;1.95;;;18.40;96.00;;;;;;4242878;28;20208;-79
2022/01/21 07:58:12;;;;;;;4.20;2.17;;;18.40;95.90;;;;;;4235293;28;20621;-79
2022/01/21 08:00:15;;;;;;;4.45;2.15;;;18.40;95.90;;;;;;4232087;28;20217;-79
2022/01/21 08:02:18;;;;;;;6.13;2.33;;;18.40;96.10;;;;;;4232533;27;20225;-79
2022/01/21 08:04:21;;;;;;;6.22;2.53;;;18.40;96.10;;;;;;4231706;27;20761;-79
2022/01/21 08:06:25;;;;;;;4.78;2.20;;;18.40;96.10;;;;;;4238732;27;20262;-78
2022/01/21 08:08:30;;;;;;;3.75;2.22;;;18.40;96.20;;;;;;4230972;28;20270;-78
2022/01/21 08:10:33;;;;;;;3.85;2.10;;;18.40;96.10;;;;;;4231751;27;20664;-78
2022/01/21 08:12:35;;;;;;;3.20;2.25;;;18.50;96.20;;;;;;4244094;27;20282;-78
2022/01/21 08:14:38;;;;;;;5.82;2.45;;;18.40;96.10;;;;;;4230727;27;20266;-78
2022/01/21 08:16:40;;;;;;;5.55;2.60;;;18.40;96.20;;;;;;4230835;28;20275;-78
2022/01/21 08:18:43;;;;;;;3.65;1.77;;;18.40;96.60;;;;;;4230982;28;20218;-79
2022/01/21 08:20:46;;;;;;;4.45;2.22;;;18.40;96.20;;;;;;4230151;27;20274;-78
2022/01/21 08:22:50;;;;;;;4.80;2.10;;;18.50;96.30;;;;;;4228272;27;20214;-78
2022/01/21 08:24:52;;;;;;;4.47;2.15;;;18.50;96.20;;;;;;4231980;27;20217;-79
2022/01/21 08:29:11;;;;;;;3.47;1.95;;;18.50;96.00;;;;;;4212156;28;20218;-79
2022/01/21 08:31:13;;;;;;;4.22;2.20;;;18.50;96.20;;;;;;4212121;27;20222;-78
2022/01/21 08:33:16;;;;;;;5.57;2.30;;;18.50;96.20;;;;;;4228582;27;20209;-77
2022/01/21 08:35:19;;;;;;;5.97;2.72;;;18.50;96.20;;;;;;4227752;28;20296;-77
2022/01/21 08:37:21;;;;;;;5.72;2.15;;;18.60;96.20;;;;;;4224731;27;20221;-77
2022/01/21 08:39:25;;;;;;;5.55;2.78;;;18.60;96.60;;;;;;4225782;27;20260;-76
2022/01/21 08:41:27;;;;;;;4.70;2.00;;;18.50;96.30;;;;;;4222870;27;21236;-77
2022/01/21 08:43:30;;;;;;;5.80;2.38;;;18.60;96.60;;;;;;4228805;27;20278;-76
2022/01/21 08:45:32;;;;;;;5.00;2.45;;;18.50;97.40;;;;;;4225126;28;20217;-77
2022/01/21 08:47:35;;;;;;;3.55;2.28;;;18.60;97.20;;;;;;4230028;28;20566;-77
2022/01/21 08:49:37;;;;;;;4.90;2.22;;;18.60;97.40;;;;;;4235626;27;20271;-77
2022/01/21 08:51:49;;;;;;;3.47;2.10;;;18.60;97.40;;;;;;4229708;27;20225;-77
2022/01/21 08:53:51;;;;;;;4.35;1.98;;;18.60;97.60;;;;;;4228689;27;20217;-76
2022/01/21 08:55:56;;;;;;;3.97;1.98;;;18.70;97.70;;;;;;4225898;28;20213;-76
2022/01/21 08:57:58;;;;;;;7.35;2.28;;;18.70;97.90;;;;;;4223147;27;20278;-77
2022/01/21 09:00:00;;;;;;;2.97;1.75;;;18.80;98.40;;;;;;4228693;28;20274;-77
2022/01/21 09:02:03;;;;;;;4.75;1.98;;;18.80;98.00;;;;;;4230455;27;20232;-77
2022/01/21 09:04:05;;;;;;;4.15;2.28;;;18.90;98.10;;;;;;4232568;27;20234;-77
2022/01/21 09:06:09;;;;;;;4.70;1.92;;;18.90;98.00;;;;;;4233337;27;20329;-77
2022/01/21 09:08:11;;;;;;;5.55;2.25;;;18.90;98.20;;;;;;4238202;27;20715;-76
2022/01/21 09:10:15;;;;;;;5.05;2.25;;;19.00;98.10;;;;;;4227098;28;20226;-77
2022/01/21 09:12:19;;;;;;;4.40;2.20;;;19.00;98.00;;;;;;4227675;28;20650;-77
2022/01/21 09:14:21;;;;;;;4.10;1.70;;;19.00;98.10;;;;;;4233962;27;20205;-77
2022/01/21 09:16:24;;;;;;;3.45;2.17;;;19.00;98.20;;;;;;4223840;27;20203;-77
2022/01/21 09:18:33;;;;;;;2.90;1.60;;;19.10;98.60;;;;;;4227466;28;20214;-76
2022/01/21 09:20:37;;;;;;;4.57;1.95;;;19.10;98.30;;;;;;4227003;28;20270;-76
2022/01/21 09:22:39;;;;;;;3.85;2.05;;;19.10;98.40;;;;;;4224409;28;20244;-76
2022/01/21 09:24:42;;;;;;;3.58;1.90;;;19.10;98.10;;;;;;4229790;28;20238;-76
2022/01/21 09:26:44;;;;;;;3.78;1.95;;;19.10;98.10;;;;;;4229294;28;20222;-77
2022/01/21 09:28:48;;;;;;;3.45;2.00;;;19.20;98.30;;;;;;4230223;27;20248;-76
2022/01/21 09:31:41;;;;;;;2.85;1.65;;;19.10;98.20;;;;;;4231434;27;20210;-76
2022/01/21 09:33:49;;;;;;;4.03;1.90;;;19.20;98.40;;;;;;4220261;27;21219;-77
2022/01/21 09:35:52;;;;;;;6.13;2.13;;;19.20;98.20;;;;;;4235372;27;20254;-77
2022/01/21 09:37:54;;;;;;;5.63;2.00;;;19.30;98.10;;;;;;4239600;27;20221;-77
2022/01/21 09:39:57;;;;;;;3.95;2.20;;;19.30;98.40;;;;;;4229195;27;20261;-77
2022/01/21 09:42:01;;;;;;;3.97;1.90;;;19.30;98.30;;;;;;4229108;28;20213;-76
2022/01/21 09:44:10;;;;;;;4.05;1.80;;;19.30;98.60;;;;;;4235227;27;20228;-77
2022/01/21 09:46:14;;;;;;;4.85;2.13;;;19.30;98.40;;;;;;4232658;27;20274;-77
2022/01/21 09:48:22;;;;;;;5.35;1.75;;;19.40;98.50;;;;;;4224828;28;20544;-76
2022/01/21 09:50:24;;;;;;;2.67;1.73;;;19.30;98.30;;;;;;4244453;27;20224;-76
2022/01/21 09:52:28;;;;;;;3.60;2.15;;;19.40;98.70;;;;;;4224180;27;20214;-77
2022/01/21 09:54:33;;;;;;;3.72;2.13;;;19.40;98.50;;;;;;4230796;27;20939;-76
2022/01/21 09:56:39;;;;;;;4.32;1.98;;;19.40;98.70;;;;;;4231441;27;20218;-76
2022/01/21 09:58:45;;;;;;;3.00;1.73;;;19.40;98.90;;;;;;4232073;27;20278;-76
2022/01/21 10:00:50;;;;;;;3.50;1.80;;;19.40;99.00;;;;;;4240400;27;20239;-76
2022/01/21 10:02:54;;;;;;;2.75;1.70;;;19.50;99.30;;;;;;4227976;28;20267;-76
2022/01/21 10:04:59;;;;;;;3.70;1.70;;;19.50;99.00;;;;;;4227333;28;20234;-77
2022/01/21 10:07:03;;;;;;;4.35;1.70;;;19.50;99.30;;;;;;4234636;27;20255;-77
2022/01/21 10:09:08;;;;;;;4.00;1.83;;;19.60;99.20;;;;;;4222495;27;20267;-77
2022/01/21 10:11:10;;;;;;;2.78;1.60;;;19.60;98.90;;;;;;4230258;27;20626;-76
2022/01/21 10:13:16;;;;;;;3.40;1.85;;;19.60;99.70;;;;;;4225192;28;20271;-77
2022/01/21 10:15:19;;;;;;;6.07;2.08;;;19.60;99.30;;;;;;4226692;28;20206;-77
2022/01/21 10:17:23;;;;;;;3.67;1.90;;;19.60;99.10;;;;;;4225194;28;20615;-77
2022/01/21 10:19:27;;;;;;;4.75;1.70;;;19.60;99.20;;;;;;4227967;28;20631;-77
2022/01/21 10:21:31;;;;;;;4.07;1.90;;;19.60;99.30;;;;;;4222251;28;20217;-77
2022/01/21 10:23:37;;;;;;;2.78;1.73;;;19.60;99.10;;;;;;4237889;27;20266;-77
2022/01/21 10:25:41;;;;;;;3.15;1.55;;;19.70;99.40;;;;;;4245746;27;20229;-78
2022/01/21 10:27:45;;;;;;;3.65;1.60;;;19.70;99.30;;;;;;4228059;27;20274;-77
2022/01/21 10:29:47;;;;;;;5.25;2.00;;;19.60;99.80;;;;;;4225780;27;20205;-78
2022/01/21 10:31:54;;;;;;;3.70;1.83;;;19.70;99.50;;;;;;4232953;27;20698;-78
2022/01/21 10:34:07;;;;;;;3.78;1.80;;;19.70;99.50;;;;;;4223207;28;20242;-77
2022/01/21 10:36:17;;;;;;;3.47;1.70;;;19.70;99.60;;;;;;4233578;27;20227;-78
2022/01/21 10:38:27;;;;;;;3.70;1.83;;;19.70;99.20;;;;;;4225829;27;20209;-77
2022/01/21 10:40:35;;;;;;;2.88;1.80;;;19.70;99.50;;;;;;4222585;28;20615;-76
2022/01/21 10:42:41;;;;;;;2.88;1.88;;;19.70;99.60;;;;;;4229418;27;20255;-77
2022/01/21 10:44:49;;;;;;;3.28;1.67;;;19.80;99.40;;;;;;4228018;27;20276;-76
2022/01/21 10:47:04;;;;;;;3.17;1.65;;;19.80;99.70;;;;;;4227549;27;20539;-77
2022/01/21 10:49:09;;;;;;;2.90;1.88;;;19.80;99.70;;;;;;4224791;28;20213;-77
2022/01/21 10:51:20;;;;;;;4.05;1.90;;;19.80;99.60;;;;;;4224444;28;20214;-76
2022/01/21 10:53:30;;;;;;;5.32;1.92;;;19.80;99.70;;;;;;4230537;27;20258;-77
2022/01/21 10:55:34;;;;;;;3.60;1.70;;;19.90;99.70;;;;;;4234131;27;20286;-77
2022/01/21 10:57:37;;;;;;;5.78;2.08;;;19.90;99.70;;;;;;4224166;28;20226;-76
2022/01/21 10:59:55;;;;;;;3.67;1.80;;;19.90;99.70;;;;;;4227843;28;20239;-76
2022/01/21 11:02:00;;;;;;;4.10;2.10;;;19.90;99.70;;;;;;4226286;28;20719;-76
2022/01/21 11:04:08;;;;;;;3.08;1.80;;;20.00;99.90;;;;;;4219642;27;20266;-76
2022/01/21 11:06:14;;;;;;;3.15;1.80;;;20.00;99.80;;;;;;4228963;28;20229;-76
2022/01/21 11:08:18;;;;;;;4.40;2.15;;;20.00;99.60;;;;;;4227830;28;20225;-76
2022/01/21 11:10:47;;;;;;;3.88;2.00;;;20.00;99.60;;;;;;4232738;28;20270;-77
2022/01/21 11:12:49;;;;;;;3.88;1.88;;;20.00;99.70;;;;;;4230052;28;20206;-77
2022/01/21 11:14:56;;;;;;;3.45;1.80;;;20.00;99.80;;;;;;4229527;28;20251;-77
2022/01/21 11:17:07;;;;;;;4.25;1.90;;;20.00;99.60;;;;;;4222939;28;20270;-79
2022/01/21 11:19:12;;;;;;;4.88;1.90;;;20.00;99.00;;;;;;4225076;28;20217;-77
2022/01/21 11:21:15;;;;;;;3.17;1.85;;;20.00;97.90;;;;;;4232979;28;20914;-78
2022/01/21 11:23:21;;;;;;;4.28;1.98;;;20.10;97.90;;;;;;4224284;28;20214;-77
2022/01/21 11:25:41;;;;;;;3.33;1.75;;;20.10;98.50;;;;;;4228124;28;20349;-77